createdAt,value
2022-09-21T00:02:55.191Z,10.70
2022-09-21T00:07:03.773Z,10.70
2022-09-21T00:11:18.173Z,10.70
2022-09-21T00:15:27.203Z,10.60
2022-09-21T00:19:36.541Z,10.60
2022-09-21T00:23:45.898Z,10.60
2022-09-21T00:27:55.857Z,10.60
2022-09-21T00:32:04.442Z,10.50
2022-09-21T00:36:16.987Z,10.50
2022-09-21T00:40:25.601Z,10.40
2022-09-21T00:44:35.091Z,10.40
2022-09-21T00:48:45.968Z,10.50
2022-09-21T00:52:57.447Z,10.50
2022-09-21T00:57:26.857Z,10.50
2022-09-21T01:01:36.564Z,10.50
2022-09-21T01:05:45.148Z,10.60
2022-09-21T01:09:58.315Z,10.60
2022-09-21T01:14:40.087Z,10.50
2022-09-21T01:19:37.971Z,10.50
2022-09-21T01:24:07.966Z,10.60
2022-09-21T01:28:37.725Z,10.60
2022-09-21T01:33:08.542Z,10.70
2022-09-21T01:37:20.277Z,10.70
2022-09-21T01:41:32.184Z,10.70
2022-09-21T01:45:44.053Z,10.80
2022-09-21T01:49:55.994Z,10.70
2022-09-21T01:54:07.644Z,10.70
2022-09-21T01:58:21.954Z,10.70
2022-09-21T02:02:51.378Z,10.80
2022-09-21T02:07:00.325Z,10.80
2022-09-21T02:11:10.612Z,10.80
2022-09-21T02:15:25.293Z,10.80
2022-09-21T02:19:37.305Z,10.80
2022-09-21T02:24:20.305Z,10.70
2022-09-21T02:28:34.683Z,10.60
2022-09-21T02:32:48.006Z,10.60
2022-09-21T02:37:10.237Z,10.60
2022-09-21T02:41:27.827Z,10.50
2022-09-21T02:45:46.038Z,10.50
2022-09-21T02:49:58.348Z,10.50
2022-09-21T02:54:09.855Z,10.40
2022-09-21T02:58:21.234Z,10.40
2022-09-21T03:02:44.529Z,10.30
2022-09-21T03:06:53.102Z,10.20
2022-09-21T03:11:02.825Z,10.20
2022-09-21T03:15:11.652Z,10.20
2022-09-21T03:19:20.214Z,10.10
2022-09-21T03:23:28.878Z,10.00
2022-09-21T03:27:37.608Z,10.00
2022-09-21T03:31:46.445Z,10.00
2022-09-21T03:35:55.071Z,10.10
2022-09-21T03:40:03.790Z,10.00
2022-09-21T03:44:13.170Z,10.00
2022-09-21T03:48:22.208Z,10.00
2022-09-21T03:52:31.243Z,9.90
2022-09-21T03:56:39.963Z,9.80
2022-09-21T04:00:48.686Z,9.80
2022-09-21T04:04:57.315Z,9.80
2022-09-21T04:09:05.944Z,9.80
2022-09-21T04:13:14.479Z,9.70
2022-09-21T04:17:22.997Z,9.60
2022-09-21T04:21:32.776Z,9.60
2022-09-21T04:25:41.812Z,9.60
2022-09-21T04:29:50.458Z,9.50
2022-09-21T04:33:59.269Z,9.60
2022-09-21T04:38:07.908Z,9.50
2022-09-21T04:42:17.253Z,9.50
2022-09-21T04:46:25.894Z,9.50
2022-09-21T04:50:34.580Z,9.50
2022-09-21T04:54:43.215Z,9.40
2022-09-21T04:58:51.743Z,9.40
2022-09-21T05:03:00.239Z,9.40
2022-09-21T05:07:08.897Z,9.40
2022-09-21T05:11:19.300Z,9.30
2022-09-21T05:15:27.879Z,9.30
2022-09-21T05:19:36.430Z,9.20
2022-09-21T05:23:45.052Z,9.20
2022-09-21T05:27:53.679Z,9.20
2022-09-21T05:32:39.684Z,9.20
2022-09-21T05:37:10.642Z,9.20
2022-09-21T05:41:41.079Z,9.20
2022-09-21T05:45:55.300Z,9.20
2022-09-21T05:50:21.724Z,9.20
2022-09-21T05:54:53.044Z,9.20
2022-09-21T05:59:04.852Z,9.10
2022-09-21T06:08:27.726Z,9.10
2022-09-21T06:12:36.987Z,9.10
2022-09-21T06:16:45.610Z,9.20
2022-09-21T06:20:54.399Z,9.20
2022-09-21T06:25:02.926Z,9.20
2022-09-21T06:29:11.662Z,9.20
2022-09-21T06:33:26.255Z,9.30
2022-09-21T06:37:34.837Z,9.30
2022-09-21T06:41:43.480Z,9.30
2022-09-21T06:50:32.175Z,9.40
2022-09-21T06:55:00.017Z,9.50
2022-09-21T06:59:09.046Z,9.60
2022-09-21T07:03:18.234Z,9.70
2022-09-21T07:07:30.241Z,9.80
2022-09-21T07:11:40.407Z,9.90
2022-09-21T07:15:53.170Z,10.10
2022-09-21T07:19:59.192Z,10.30
2022-09-21T07:24:11.944Z,10.50
2022-09-21T07:28:18.288Z,10.70
2022-09-21T07:32:27.442Z,10.80
2022-09-21T07:36:55.341Z,11.00
2022-09-21T07:41:04.361Z,11.20
2022-09-21T07:45:13.091Z,11.30
2022-09-21T07:49:21.764Z,11.50
2022-09-21T07:53:31.962Z,11.60
2022-09-21T08:02:15.327Z,11.80
2022-09-21T08:06:27.189Z,11.90
2022-09-21T08:10:36.199Z,12.00
2022-09-21T08:14:45.677Z,12.10
2022-09-21T08:18:55.196Z,12.10
2022-09-21T08:23:04.234Z,12.10
2022-09-21T08:27:13.750Z,12.20
2022-09-21T08:31:24.474Z,12.30
2022-09-21T08:35:33.823Z,12.40
2022-09-21T08:39:42.743Z,12.50
2022-09-21T08:44:03.936Z,12.70
2022-09-21T08:48:22.895Z,12.80
2022-09-21T08:52:31.684Z,12.90
2022-09-21T08:57:01.024Z,13.00
2022-09-21T09:00:53.730Z,13.20
2022-09-21T09:05:06.475Z,13.30
2022-09-21T09:09:31.170Z,13.40
2022-09-21T09:14:16.253Z,13.60
2022-09-21T09:18:41.402Z,13.80
2022-09-21T09:22:50.204Z,13.90
2022-09-21T09:27:23.201Z,14.10
2022-09-21T09:31:39.372Z,14.20
2022-09-21T09:35:57.697Z,14.40
2022-09-21T09:40:08.540Z,14.60
2022-09-21T09:44:38.328Z,14.70
2022-09-21T09:48:55.973Z,14.90
2022-09-21T09:53:13.548Z,15.10
2022-09-21T09:57:33.952Z,15.30
2022-09-21T10:01:47.451Z,15.50
2022-09-21T10:05:56.253Z,15.70
2022-09-21T10:10:07.033Z,16.00
2022-09-21T10:14:19.323Z,16.20
2022-09-21T10:18:30.990Z,16.40
2022-09-21T10:22:39.734Z,16.30
2022-09-21T10:27:00.320Z,16.00
2022-09-21T10:31:12.410Z,16.10
2022-09-21T10:35:21.422Z,16.30
2022-09-21T10:39:36.284Z,16.80
2022-09-21T10:43:45.370Z,17.10
2022-09-21T10:48:09.238Z,17.40
2022-09-21T10:52:19.985Z,17.50
2022-09-21T10:56:28.824Z,17.70
2022-09-21T11:00:43.802Z,17.90
2022-09-21T11:04:55.499Z,17.80
2022-09-21T11:09:25.530Z,17.50
2022-09-21T11:14:13.135Z,17.30
2022-09-21T11:18:40.204Z,16.90
2022-09-21T11:23:12.569Z,16.70
2022-09-21T11:27:27.410Z,16.60
2022-09-21T11:31:55.375Z,16.40
2022-09-21T11:36:07.121Z,16.20
2022-09-21T11:40:35.906Z,16.20
2022-09-21T11:45:00.175Z,16.10
2022-09-21T11:49:20.680Z,16.10
2022-09-21T11:54:03.855Z,16.10
2022-09-21T11:58:24.227Z,16.10
2022-09-21T12:02:52.397Z,16.20
2022-09-21T12:07:30.169Z,16.20
2022-09-21T12:12:05.577Z,16.20
2022-09-21T12:16:23.472Z,16.20
2022-09-21T12:20:35.103Z,16.10
2022-09-21T12:24:50.004Z,16.10
2022-09-21T12:29:07.528Z,16.10
2022-09-21T12:33:25.586Z,16.10
2022-09-21T12:37:43.438Z,16.10
2022-09-21T12:42:12.402Z,16.10
2022-09-21T12:46:39.360Z,16.10
2022-09-21T12:51:13.931Z,16.10
2022-09-21T12:55:50.418Z,16.10
2022-09-21T13:00:05.187Z,16.10
2022-09-21T13:04:38.605Z,16.50
2022-09-21T13:13:01.753Z,17.40
2022-09-21T13:17:13.542Z,17.70
2022-09-21T13:21:27.026Z,17.80
2022-09-21T13:25:38.612Z,17.50
2022-09-21T13:29:48.801Z,17.30
2022-09-21T13:34:18.729Z,17.20
2022-09-21T13:38:36.575Z,17.10
2022-09-21T13:42:48.510Z,17.00
2022-09-21T13:46:57.927Z,17.30
2022-09-21T13:51:10.141Z,17.40
2022-09-21T13:55:31.058Z,17.40
2022-09-21T13:59:41.119Z,17.20
2022-09-21T14:03:55.482Z,17.00
2022-09-21T14:08:18.560Z,16.90
2022-09-21T14:12:46.670Z,17.00
2022-09-21T14:16:57.854Z,17.10
2022-09-21T14:21:08.915Z,17.00
2022-09-21T14:25:26.858Z,17.10
2022-09-21T14:29:44.707Z,17.30
2022-09-21T14:34:16.776Z,17.50
2022-09-21T14:38:34.526Z,17.60
2022-09-21T14:42:44.407Z,17.60
2022-09-21T14:47:16.770Z,17.70
2022-09-21T14:51:55.735Z,17.70
2022-09-21T14:56:19.694Z,17.80
2022-09-21T15:00:45.956Z,17.90
2022-09-21T15:05:03.605Z,18.00
2022-09-21T15:09:51.447Z,18.00
2022-09-21T15:14:19.509Z,17.90
2022-09-21T15:18:28.240Z,17.90
2022-09-21T15:22:39.963Z,17.90
2022-09-21T15:26:51.512Z,17.80
2022-09-21T15:31:00.170Z,17.80
2022-09-21T15:35:19.371Z,17.70
2022-09-21T15:39:30.310Z,17.70
2022-09-21T15:43:41.108Z,17.60
2022-09-21T15:47:49.837Z,17.60
2022-09-21T15:52:35.238Z,17.50
2022-09-21T15:56:45.192Z,17.40
2022-09-21T16:00:56.025Z,17.20
2022-09-21T16:05:07.234Z,17.10
2022-09-21T16:09:30.749Z,17.10
2022-09-21T16:13:57.898Z,17.00
2022-09-21T16:18:31.717Z,17.00
2022-09-21T16:22:43.625Z,16.90
2022-09-21T16:27:01.673Z,16.90
2022-09-21T16:31:25.157Z,16.80
2022-09-21T16:35:37.071Z,16.80
2022-09-21T16:39:45.685Z,16.70
2022-09-21T16:43:56.879Z,16.70
2022-09-21T16:48:07.457Z,16.50
2022-09-21T16:52:17.153Z,16.50
2022-09-21T16:56:26.391Z,16.40
2022-09-21T17:00:38.245Z,16.30
2022-09-21T17:04:47.918Z,16.20
2022-09-21T17:08:56.594Z,16.00
2022-09-21T17:13:06.853Z,15.90
2022-09-21T17:17:24.130Z,15.70
2022-09-21T17:21:32.759Z,15.60
2022-09-21T17:25:41.491Z,15.40
2022-09-21T17:29:51.574Z,15.30
2022-09-21T17:34:02.844Z,15.20
2022-09-21T17:38:14.468Z,15.10
2022-09-21T17:42:24.908Z,15.00
2022-09-21T17:46:58.291Z,15.00
2022-09-21T17:51:07.545Z,14.90
2022-09-21T17:55:18.256Z,14.70
2022-09-21T17:59:36.181Z,14.60
2022-09-21T18:03:45.335Z,14.50
2022-09-21T18:07:54.521Z,14.40
2022-09-21T18:12:10.549Z,14.30
2022-09-21T18:16:27.145Z,14.30
2022-09-21T18:20:58.615Z,14.20
2022-09-21T18:25:39.487Z,14.10
2022-09-21T18:29:48.292Z,14.00
2022-09-21T18:34:13.056Z,14.00
2022-09-21T18:38:34.362Z,14.00
2022-09-21T18:42:55.736Z,13.90
2022-09-21T18:47:08.518Z,13.80
2022-09-21T18:51:25.778Z,13.70
2022-09-21T18:55:36.391Z,13.60
2022-09-21T18:59:45.409Z,13.50
2022-09-21T19:03:54.594Z,13.40
2022-09-21T19:08:11.778Z,13.40
2022-09-21T19:12:26.775Z,13.20
2022-09-21T19:16:48.767Z,13.20
2022-09-21T19:21:27.529Z,13.10
2022-09-21T19:25:44.760Z,13.10
2022-09-21T19:29:56.037Z,13.00
2022-09-21T19:34:24.546Z,12.90
2022-09-21T19:38:34.175Z,12.90
2022-09-21T19:42:54.667Z,12.80
2022-09-21T19:47:21.152Z,12.80
2022-09-21T19:51:52.055Z,12.70
2022-09-21T19:56:20.086Z,12.70
2022-09-21T20:00:29.162Z,12.60
2022-09-21T20:04:58.338Z,12.50
2022-09-21T20:09:16.200Z,12.40
2022-09-21T20:14:01.571Z,12.30
2022-09-21T20:18:24.976Z,12.30
2022-09-21T20:22:41.531Z,12.30
2022-09-21T20:26:51.624Z,12.30
2022-09-21T20:31:00.635Z,12.20
2022-09-21T20:35:21.172Z,12.20
2022-09-21T20:39:29.695Z,12.10
2022-09-21T20:43:39.351Z,12.10
2022-09-21T20:47:49.820Z,12.00
2022-09-21T20:52:18.007Z,12.00
2022-09-21T20:56:26.842Z,11.90
2022-09-21T21:00:58.798Z,11.90
2022-09-21T21:05:05.833Z,11.80
2022-09-21T21:09:14.434Z,11.80
2022-09-21T21:13:23.114Z,11.70
2022-09-21T21:17:31.693Z,11.70
2022-09-21T21:21:40.779Z,11.60
2022-09-21T21:25:49.339Z,11.60
2022-09-21T21:29:58.404Z,11.60
2022-09-21T21:34:07.590Z,11.50
2022-09-21T21:38:16.271Z,11.50
2022-09-21T21:42:29.482Z,11.50
2022-09-21T21:46:38.450Z,11.40
2022-09-21T21:50:47.192Z,11.40
2022-09-21T21:54:56.213Z,11.40
2022-09-21T21:59:05.010Z,11.30
2022-09-21T22:03:13.592Z,11.30
2022-09-21T22:07:22.305Z,11.20
2022-09-21T22:11:31.717Z,11.10
2022-09-21T22:15:40.485Z,11.10
2022-09-21T22:19:49.530Z,11.10
2022-09-21T22:24:04.645Z,11.00
2022-09-21T22:28:13.221Z,11.00
2022-09-21T22:32:23.190Z,11.10
2022-09-21T22:36:34.380Z,11.00
2022-09-21T22:40:43.548Z,11.00
2022-09-21T22:44:52.149Z,11.00
2022-09-21T22:49:01.074Z,11.00
2022-09-21T22:53:09.816Z,10.90
2022-09-21T22:57:18.444Z,10.90
2022-09-21T23:01:33.949Z,10.80
2022-09-21T23:05:42.869Z,10.80
2022-09-21T23:09:52.625Z,10.80
2022-09-21T23:14:02.562Z,10.70
2022-09-21T23:18:11.198Z,10.70
2022-09-21T23:22:19.842Z,10.70
2022-09-21T23:26:30.670Z,10.60
2022-09-21T23:30:39.354Z,10.60
2022-09-21T23:34:48.595Z,10.60
2022-09-21T23:38:57.719Z,10.60
2022-09-21T23:43:06.368Z,10.50
2022-09-21T23:47:14.891Z,10.50
2022-09-21T23:51:23.624Z,10.40
2022-09-21T23:55:32.252Z,10.40
2022-09-21T23:59:40.882Z,10.30
